PWSweather.com
Personal Weather Stations
Station Observations
MAHIABEACH
Mahia Beach, Mahia Peninsula Hawkes Bay -NZ 4108

Mahia BeachMahia Peninsula Hawkes Bay -NZ 4108

Lat: -39.087594, Lon: 177.87261128

Elevation: 20

Station Type: ScientificSales WS1093

http://wairoa.net/mahia/index.htm

Latest ConditionsUpdated 6:45:05 AM GMT+12:12 Wednesday, Sep 3, 2014
Currently Today's Max Today's Min Today's Average
Temperature 55.9°F13.3°C 57.2°F14.0°C 54.9°F12.7°C 55.7°F13.2°C
Dew Point 55.7°F13.2°C 56.9°F13.8°C 54.6°F12.6°C 55.5°F13.1°C
Winds 3.4 mph NNE5.5 kmh NNE 5.0 mph NE8.0 kmh NE - 3.7 mph 6.0 kmh
Wind Gusts 9.8 mph15.8 kmh 16.8 mph27.0 kmh - -
Humidity 99% 99% 99% 99%
Pressure 29.88 in1011.9 mb 29.89 in1012.2 mb 29.86 in1011.2 mb -
Precipitation - 0.06 in1.5 mm - -
Hour Temp Dew Point Humidity Winds Wind Gusts Pressure Precip Precip Rate Daily Precip Total
06:45 AM 55.9°F13.3°C 55.7°F13.2°C 99% 3.4 mph NNE5.5 kmh NNE 9.8 mph15.8 kmh 29.88 in1011.9 mb 0.00 in0.0 mm 0.00 in/hr0.0 mm/hr 0.06 in1.5 mm
06:30 AM 55.9°F13.3°C 55.7°F13.2°C 99% 4.9 mph NE7.9 kmh NE 15.2 mph24.5 kmh 29.87 in1011.5 mb 0.00 in0.0 mm 0.00 in/hr0.0 mm/hr 0.06 in1.5 mm
06:15 AM 55.2°F12.9°C 55.0°F12.8°C 99% 5.0 mph NE8.0 kmh NE 12.1 mph19.5 kmh 29.87 in1011.5 mb 0.00 in0.0 mm 0.00 in/hr0.0 mm/hr 0.06 in1.5 mm
06:00 AM 56.1°F13.4°C 55.9°F13.3°C 99% 3.1 mph NE5.0 kmh NE 7.6 mph12.2 kmh 29.87 in1011.5 mb 0.00 in0.0 mm 0.00 in/hr0.0 mm/hr 0.06 in1.5 mm
05:45 AM 55.9°F13.3°C 55.7°F13.2°C 99% 2.1 mph NE3.4 kmh NE 7.6 mph12.2 kmh 29.88 in1011.9 mb 0.00 in0.0 mm 0.00 in/hr0.0 mm/hr 0.06 in1.5 mm
05:30 AM 55.6°F13.1°C 55.3°F12.9°C 99% 2.6 mph NE4.2 kmh NE 6.0 mph9.7 kmh 29.88 in1011.9 mb 0.00 in0.0 mm 0.00 in/hr0.0 mm/hr 0.06 in1.5 mm
05:15 AM 55.6°F13.1°C 55.3°F12.9°C 99% 2.4 mph ENE3.9 kmh ENE 6.9 mph11.1 kmh 29.87 in1011.5 mb 0.00 in0.0 mm 0.00 in/hr0.0 mm/hr 0.06 in1.5 mm
05:00 AM 55.8°F13.2°C 55.5°F13.1°C 99% 2.9 mph NE4.7 kmh NE 7.6 mph12.2 kmh 29.87 in1011.5 mb 0.00 in0.0 mm 0.00 in/hr0.0 mm/hr 0.06 in1.5 mm
04:45 AM 55.4°F13.0°C 55.1°F12.8°C 99% 2.3 mph NE3.7 kmh NE 8.3 mph13.4 kmh 29.86 in1011.2 mb 0.00 in0.0 mm 0.00 in/hr0.0 mm/hr 0.06 in1.5 mm
04:30 AM 55.4°F13.0°C 55.1°F12.8°C 99% 3.4 mph NE5.5 kmh NE 9.2 mph14.8 kmh 29.86 in1011.2 mb 0.02 in0.5 mm 0.00 in/hr0.0 mm/hr 0.06 in1.5 mm
04:15 AM 55.4°F13.0°C 55.1°F12.8°C 99% 3.3 mph NE5.3 kmh NE 9.2 mph14.8 kmh 29.86 in1011.2 mb 0.04 in1.0 mm 0.00 in/hr0.0 mm/hr 0.06 in1.5 mm
04:00 AM 54.9°F12.7°C 54.6°F12.6°C 99% 3.1 mph NE5.0 kmh NE 7.6 mph12.2 kmh 29.86 in1011.2 mb 0.04 in1.0 mm 0.00 in/hr0.0 mm/hr 0.06 in1.5 mm
03:45 AM 55.8°F13.2°C 55.5°F13.1°C 99% 3.6 mph NNE5.8 kmh NNE 8.3 mph13.4 kmh 29.86 in1011.2 mb 0.05 in1.3 mm 0.12 in/hr3.0 mm/hr 0.06 in1.5 mm
03:30 AM 55.0°F12.8°C 54.8°F12.7°C 99% 4.7 mph ENE7.6 kmh ENE 16.8 mph27.0 kmh 29.87 in1011.5 mb 0.02 in0.5 mm 0.04 in/hr1.0 mm/hr 0.04 in1.0 mm
03:15 AM 56.3°F13.5°C 56.0°F13.3°C 99% 4.1 mph NE6.6 kmh NE 11.4 mph18.3 kmh 29.86 in1011.2 mb 0.01 in0.3 mm 0.00 in/hr0.0 mm/hr 0.02 in0.5 mm
03:00 AM 54.9°F12.7°C 54.6°F12.6°C 99% 2.8 mph NE4.5 kmh NE 7.6 mph12.2 kmh 29.86 in1011.2 mb 0.01 in0.3 mm 0.01 in/hr0.3 mm/hr 0.02 in0.5 mm
02:45 AM 57.2°F14.0°C 56.9°F13.8°C 99% 4.4 mph ENE7.1 kmh ENE 10.7 mph17.2 kmh 29.87 in1011.5 mb 0.00 in0.0 mm 0.00 in/hr0.0 mm/hr 0.01 in0.3 mm
02:30 AM 56.1°F13.4°C 55.9°F13.3°C 99% 3.4 mph NE5.5 kmh NE 9.2 mph14.8 kmh 29.87 in1011.5 mb 0.00 in0.0 mm 0.00 in/hr0.0 mm/hr 0.01 in0.3 mm
02:15 AM 55.8°F13.2°C 55.5°F13.1°C 99% 3.0 mph NE4.8 kmh NE 9.8 mph15.8 kmh 29.88 in1011.9 mb 0.00 in0.0 mm 0.00 in/hr0.0 mm/hr 0.01 in0.3 mm
02:00 AM 55.6°F13.1°C 55.3°F12.9°C 99% 4.0 mph N6.4 kmh N 10.7 mph17.2 kmh 29.88 in1011.9 mb 0.00 in0.0 mm 0.00 in/hr0.0 mm/hr 0.01 in0.3 mm
01:45 AM 55.8°F13.2°C 55.5°F13.1°C 99% 3.8 mph ENE6.1 kmh ENE 9.2 mph14.8 kmh 29.89 in1012.2 mb 0.00 in0.0 mm 0.00 in/hr0.0 mm/hr 0.01 in0.3 mm
01:30 AM 55.6°F13.1°C 55.3°F12.9°C 99% 4.6 mph NE7.4 kmh NE 10.7 mph17.2 kmh 29.89 in1012.2 mb 0.01 in0.3 mm 0.00 in/hr0.0 mm/hr 0.01 in0.3 mm
01:15 AM 55.8°F13.2°C 55.5°F13.1°C 99% 4.8 mph NE7.7 kmh NE 12.1 mph19.5 kmh 29.89 in1012.2 mb 0.01 in0.3 mm 0.00 in/hr0.0 mm/hr 0.01 in0.3 mm
01:00 AM 55.8°F13.2°C 55.5°F13.1°C 99% 4.6 mph NE7.4 kmh NE 11.4 mph18.3 kmh 29.89 in1012.2 mb 0.01 in0.3 mm 0.00 in/hr0.0 mm/hr 0.01 in0.3 mm
12:45 AM 55.8°F13.2°C 55.5°F13.1°C 99% 4.0 mph NE6.4 kmh NE 11.4 mph18.3 kmh 29.89 in1012.2 mb 0.02 in0.5 mm 0.04 in/hr1.0 mm/hr 0.01 in0.3 mm
12:30 AM 56.1°F13.4°C 55.9°F13.3°C 99% 3.5 mph NNE5.6 kmh NNE 9.2 mph14.8 kmh 29.89 in1012.2 mb 0.01 in0.3 mm 0.00 in/hr0.0 mm/hr 0.04 in1.0 mm
12:15 AM 55.8°F13.2°C 55.5°F13.1°C 99% 4.2 mph NE6.8 kmh NE 10.7 mph17.2 kmh 29.89 in1012.2 mb 0.04 in1.0 mm 0.00 in/hr0.0 mm/hr 0.04 in1.0 mm
12:00 AM 55.8°F13.2°C 55.5°F13.1°C 99% 4.4 mph NE7.1 kmh NE 12.1 mph19.5 kmh 29.89 in1012.2 mb 0.04 in1.0 mm 0.00 in/hr0.0 mm/hr 0.04 in1.0 mm